Time;durP1;ratioP1;P1;durP2;ratioP2;P2;SDS_P1;SDS_P2;PMS_P1;PMS_P2;Temp;Humidity;BMP_temperature;BMP_pressure;BME280_temperature;BME280_humidity;BME280_pressure;Samples;Min_cycle;Max_cycle;Signal;HPM_P1;HPM_P2
2021/05/22 00:02:22;;;;;;;;;;;8.10;91.20;;;;;;5061318;28;20012;-67
2021/05/22 00:04:47;;;;;;;;;;;8.10;91.00;;;;;;5044860;28;19926;-68
2021/05/22 00:07:13;;;;;;;;;;;8.20;90.80;;;;;;5062092;28;19936;-67
2021/05/22 00:09:39;;;;;;;;;;;8.20;90.70;;;;;;5058341;28;20344;-67
2021/05/22 00:12:04;;;;;;;;;;;8.20;90.30;;;;;;5062123;28;19912;-66
2021/05/22 00:14:30;;;;;;;;;;;8.20;90.50;;;;;;5061340;28;19932;-69
2021/05/22 00:16:55;;;;;;;;;;;8.20;90.40;;;;;;5061579;28;19916;-67
2021/05/22 00:19:21;;;;;;;;;;;8.20;90.30;;;;;;5060002;28;20426;-67
2021/05/22 00:21:46;;;;;;;;;;;8.20;90.20;;;;;;5060501;28;19921;-68
2021/05/22 00:24:12;;;;;;;;;;;8.40;89.20;;;;;;5059138;28;20452;-68
2021/05/22 00:26:38;;;;;;;;;;;8.20;89.80;;;;;;5076564;28;20090;-68
2021/05/22 00:29:03;;;;;;;;;;;8.30;89.00;;;;;;5062054;28;20014;-68
2021/05/22 00:31:29;;;;;;;;;;;8.40;88.60;;;;;;5060638;28;19951;-69
2021/05/22 00:33:55;;;;;;;;;;;8.40;88.30;;;;;;5061626;28;19965;-67
2021/05/22 00:36:20;;;;;;;;;;;8.40;88.90;;;;;;5059824;28;19989;-68
2021/05/22 00:38:46;;;;;;;;;;;8.50;88.30;;;;;;5061287;28;19912;-68
2021/05/22 00:41:11;;;;;;;;;;;8.40;88.50;;;;;;5059885;28;19969;-67
2021/05/22 00:43:37;;;;;;;;;;;8.50;88.40;;;;;;5042468;28;19912;-67
2021/05/22 00:46:02;;;;;;;;;;;8.50;88.30;;;;;;5060454;28;20007;-66
2021/05/22 00:48:28;;;;;;;;;;;8.40;88.60;;;;;;5061237;28;20502;-68
2021/05/22 00:50:53;;;;;;;;;;;8.40;88.40;;;;;;5060918;28;20207;-68
2021/05/22 00:53:19;;;;;;;;;;;8.30;88.70;;;;;;5060849;28;19932;-69
2021/05/22 00:55:45;;;;;;;;;;;8.30;88.50;;;;;;5044914;28;19932;-69
2021/05/22 00:58:11;;;;;;;;;;;8.30;88.20;;;;;;5058258;28;20336;-67
2021/05/22 01:00:41;;;;;;;;;;;8.40;87.20;;;;;;5058901;28;19939;-67
2021/05/22 01:03:15;;;;;;;;;;;8.30;88.00;;;;;;5064139;28;19916;-67
2021/05/22 01:05:42;;;;;;;;;;;8.30;87.80;;;;;;5062444;28;19913;-67
2021/05/22 01:08:13;;;;;;;;;;;8.30;87.20;;;;;;5049512;28;19908;-68
2021/05/22 01:10:40;;;;;;;;;;;8.20;87.60;;;;;;5060477;28;19961;-67
2021/05/22 01:13:06;;;;;;;;;;;8.10;88.20;;;;;;5060983;28;19919;-67
2021/05/22 01:15:32;;;;;;;;;;;8.00;88.60;;;;;;5059245;28;19917;-66
2021/05/22 01:17:58;;;;;;;;;;;8.00;88.60;;;;;;5061567;28;19908;-68
2021/05/22 01:20:29;;;;;;;;;;;8.00;88.70;;;;;;5062985;28;19939;-68
2021/05/22 01:22:57;;;;;;;;;;;7.90;88.70;;;;;;5061736;28;20304;-67
2021/05/22 01:25:23;;;;;;;;;;;7.80;89.20;;;;;;5059918;28;20345;-67
2021/05/22 01:27:49;;;;;;;;;;;7.80;89.50;;;;;;5062495;28;20321;-67
2021/05/22 01:30:16;;;;;;;;;;;7.70;89.90;;;;;;5062991;28;19924;-69
2021/05/22 01:32:41;;;;;;;;;;;7.60;89.80;;;;;;5060623;28;19920;-69
2021/05/22 01:35:07;;;;;;;;;;;7.50;90.20;;;;;;5061869;28;19962;-69
2021/05/22 01:37:32;;;;;;;;;;;7.50;90.60;;;;;;5061013;28;19913;-67
2021/05/22 01:39:58;;;;;;;;;;;7.50;90.40;;;;;;5061755;28;19912;-67
2021/05/22 01:42:23;;;;;;;;;;;7.60;90.10;;;;;;5044377;28;20554;-68
2021/05/22 01:44:50;;;;;;;;;;;7.60;89.90;;;;;;5061512;28;20233;-67
2021/05/22 01:47:17;;;;;;;;;;;7.70;89.60;;;;;;5055767;28;19978;-67
2021/05/22 01:49:43;;;;;;;;;;;7.70;89.70;;;;;;5050056;28;19909;-67
2021/05/22 01:52:09;;;;;;;;;;;7.60;90.10;;;;;;5061541;28;20276;-67
2021/05/22 01:54:35;;;;;;;;;;;7.80;89.60;;;;;;5061894;28;20256;-66
2021/05/22 01:57:01;;;;;;;;;;;8.00;89.30;;;;;;5057746;28;20225;-67
2021/05/22 01:59:27;;;;;;;;;;;8.00;88.40;;;;;;5060601;28;19912;-69
2021/05/22 02:01:53;;;;;;;;;;;7.90;89.40;;;;;;5042972;28;19912;-68
2021/05/22 02:04:20;;;;;;;;;;;7.90;89.00;;;;;;5061015;28;20380;-67
2021/05/22 02:06:48;;;;;;;;;;;8.00;88.90;;;;;;5062704;28;20263;-67
2021/05/22 02:09:14;;;;;;;;;;;8.00;89.00;;;;;;5061473;28;19917;-67
2021/05/22 02:11:41;;;;;;;;;;;8.10;88.80;;;;;;5061308;28;19913;-67
2021/05/22 02:14:07;;;;;;;;;;;8.20;88.20;;;;;;5061223;28;19912;-66
2021/05/22 02:16:36;;;;;;;;;;;8.20;88.40;;;;;;5060880;28;20325;-67
2021/05/22 02:19:02;;;;;;;;;;;8.10;88.70;;;;;;5061229;28;19935;-67
2021/05/22 02:21:28;;;;;;;;;;;8.00;89.30;;;;;;5059432;28;19912;-67
2021/05/22 02:23:54;;;;;;;;;;;8.00;89.20;;;;;;5055469;28;20355;-67
2021/05/22 02:26:24;;;;;;;;;;;8.10;89.10;;;;;;5064263;28;19966;-68
2021/05/22 02:28:49;;;;;;;;;;;8.10;88.50;;;;;;5065756;28;19920;-67
2021/05/22 02:31:17;;;;;;;;;;;8.10;89.00;;;;;;5047366;28;19965;-69
2021/05/22 02:33:43;;;;;;;;;;;7.90;89.40;;;;;;5064511;28;20022;-68
2021/05/22 02:36:08;;;;;;;;;;;7.80;89.90;;;;;;5065056;28;20352;-67
2021/05/22 02:38:35;;;;;;;;;;;7.80;89.60;;;;;;5064899;28;19964;-68
2021/05/22 02:41:04;;;;;;;;;;;7.80;90.10;;;;;;5066181;28;20023;-68
2021/05/22 02:43:30;;;;;;;;;;;7.80;89.70;;;;;;5062433;28;20114;-67
2021/05/22 02:45:56;;;;;;;;;;;7.80;89.80;;;;;;5063480;28;19916;-67
2021/05/22 02:48:22;;;;;;;;;;;7.70;89.80;;;;;;5065029;28;19944;-67
2021/05/22 02:50:49;;;;;;;;;;;7.80;89.40;;;;;;5063110;28;20331;-67
2021/05/22 02:53:18;;;;;;;;;;;7.70;89.80;;;;;;5065037;28;20237;-68
2021/05/22 02:55:44;;;;;;;;;;;7.70;89.70;;;;;;5061919;28;19953;-68
2021/05/22 02:58:10;;;;;;;;;;;7.60;90.00;;;;;;5049046;28;19912;-66
2021/05/22 03:00:36;;;;;;;;;;;7.80;89.30;;;;;;5063384;28;19936;-67
2021/05/22 03:03:02;;;;;;;;;;;7.80;89.20;;;;;;5064046;28;19948;-67
2021/05/22 03:05:30;;;;;;;;;;;7.70;89.70;;;;;;5064028;28;20264;-67
2021/05/22 03:07:55;;;;;;;;;;;7.80;89.50;;;;;;5062990;28;20046;-68
2021/05/22 03:10:21;;;;;;;;;;;7.80;89.60;;;;;;5065108;28;19919;-67
2021/05/22 03:12:47;;;;;;;;;;;7.80;89.30;;;;;;5064771;28;20020;-67
2021/05/22 03:15:12;;;;;;;;;;;7.90;89.00;;;;;;5065109;28;20377;-68
2021/05/22 03:17:38;;;;;;;;;;;7.80;89.50;;;;;;5064326;28;19923;-67
2021/05/22 03:20:04;;;;;;;;;;;7.80;89.60;;;;;;5063441;28;19946;-69
2021/05/22 03:22:29;;;;;;;;;;;7.80;89.20;;;;;;5062745;28;20385;-66
2021/05/22 03:24:55;;;;;;;;;;;7.80;89.50;;;;;;5062848;28;19998;-68
2021/05/22 03:27:20;;;;;;;;;;;7.90;89.10;;;;;;5063516;28;19917;-67
2021/05/22 03:29:46;;;;;;;;;;;7.90;89.10;;;;;;5064610;28;19959;-66
2021/05/22 03:32:11;;;;;;;;;;;8.00;88.90;;;;;;5064129;28;19962;-65
2021/05/22 03:34:37;;;;;;;;;;;8.10;88.50;;;;;;5060253;28;19927;-67
2021/05/22 03:37:02;;;;;;;;;;;8.00;88.90;;;;;;5064605;28;19995;-67
2021/05/22 03:39:28;;;;;;;;;;;8.00;88.70;;;;;;5065270;28;19928;-67
2021/05/22 03:41:53;;;;;;;;;;;7.90;89.20;;;;;;5063293;28;19916;-67
2021/05/22 03:44:19;;;;;;;;;;;8.00;88.90;;;;;;5046292;28;19992;-67
2021/05/22 03:46:44;;;;;;;;;;;8.20;87.90;;;;;;5063457;28;19920;-67
2021/05/22 03:49:10;;;;;;;;;;;8.20;87.80;;;;;;5064658;28;19916;-67
2021/05/22 03:51:35;;;;;;;;;;;8.20;87.90;;;;;;5045630;28;20012;-67
2021/05/22 03:54:02;;;;;;;;;;;8.10;88.20;;;;;;5044501;28;19924;-68
2021/05/22 03:56:27;;;;;;;;;;;8.20;87.70;;;;;;5061521;28;19976;-68
2021/05/22 03:58:53;;;;;;;;;;;8.30;87.50;;;;;;5061011;28;19916;-67
2021/05/22 04:01:19;;;;;;;;;;;8.30;87.60;;;;;;5063831;28;19912;-67
2021/05/22 04:03:44;;;;;;;;;;;8.30;87.60;;;;;;5044742;28;19923;-67
2021/05/22 04:06:10;;;;;;;;;;;8.40;87.00;;;;;;5064646;28;19931;-68
2021/05/22 04:08:35;;;;;;;;;;;8.30;87.30;;;;;;5064704;28;19939;-67
2021/05/22 04:11:01;;;;;;;;;;;8.40;87.30;;;;;;5065873;28;19977;-68
2021/05/22 04:13:26;;;;;;;;;;;8.40;86.70;;;;;;5065837;28;20231;-67
2021/05/22 04:15:52;;;;;;;;;;;8.60;85.80;;;;;;5063364;28;20055;-68
2021/05/22 04:18:17;;;;;;;;;;;8.60;86.10;;;;;;5063219;28;20349;-68
2021/05/22 04:20:43;;;;;;;;;;;8.60;86.20;;;;;;5063380;28;19943;-66
2021/05/22 04:23:08;;;;;;;;;;;8.70;85.70;;;;;;5061146;28;19920;-68
2021/05/22 04:25:34;;;;;;;;;;;8.70;85.50;;;;;;5061912;28;20269;-68
2021/05/22 04:27:59;;;;;;;;;;;8.80;85.00;;;;;;5061609;28;19989;-67
2021/05/22 04:30:25;;;;;;;;;;;8.80;85.70;;;;;;5062846;28;19982;-68
2021/05/22 04:32:51;;;;;;;;;;;8.70;85.60;;;;;;5057378;28;21165;-68
2021/05/22 04:35:17;;;;;;;;;;;8.80;84.90;;;;;;5048087;28;20380;-68
2021/05/22 04:40:17;;;;;;;;;;;8.90;84.90;;;;;;5266839;22;19925;-67
2021/05/22 04:42:43;;;;;;;;;;;9.00;84.80;;;;;;5016620;28;19932;-67
2021/05/22 04:45:09;;;;;;;;;;;9.00;84.50;;;;;;5020900;28;19924;-69
2021/05/22 04:47:35;;;;;;;;;;;9.00;84.40;;;;;;5019708;28;19921;-70
2021/05/22 04:50:01;;;;;;;;;;;9.00;84.70;;;;;;5022204;28;19921;-69
2021/05/22 04:52:26;;;;;;;;;;;9.00;84.70;;;;;;5021670;28;20400;-69
2021/05/22 04:54:52;;;;;;;;;;;9.10;83.60;;;;;;5021971;28;19960;-67
2021/05/22 04:57:17;;;;;;;;;;;9.10;84.40;;;;;;5021313;28;20304;-68
2021/05/22 04:59:43;;;;;;;;;;;9.30;83.30;;;;;;5017450;28;19994;-69
2021/05/22 05:02:08;;;;;;;;;;;9.40;83.40;;;;;;5018576;28;20331;-68
2021/05/22 05:04:34;;;;;;;;;;;9.60;82.70;;;;;;5019857;28;19917;-69
2021/05/22 05:07:02;;;;;;;;;;;9.80;82.20;;;;;;5017425;28;20308;-69
2021/05/22 05:09:27;;;;;;;;;;;9.90;81.30;;;;;;5019101;28;19921;-68
2021/05/22 05:11:53;;;;;;;;;;;9.90;81.50;;;;;;5020617;28;20251;-68
2021/05/22 05:14:18;;;;;;;;;;;9.90;80.50;;;;;;5018924;28;19913;-68
2021/05/22 05:16:44;;;;;;;;;;;9.90;81.00;;;;;;5021702;28;20028;-68
2021/05/22 05:19:09;;;;;;;;;;;9.80;81.50;;;;;;5020334;28;19986;-68
2021/05/22 05:21:35;;;;;;;;;;;9.80;82.00;;;;;;5018013;28;20238;-69
2021/05/22 05:24:00;;;;;;;;;;;9.80;82.00;;;;;;5020000;28;20015;-69
2021/05/22 05:26:26;;;;;;;;;;;10.10;80.30;;;;;;5016969;28;20143;-68
2021/05/22 05:28:51;;;;;;;;;;;10.10;80.90;;;;;;5012519;28;19971;-67
2021/05/22 05:31:17;;;;;;;;;;;10.20;80.20;;;;;;5020348;28;20059;-67
2021/05/22 05:33:42;;;;;;;;;;;10.40;79.60;;;;;;5021487;28;20277;-67
2021/05/22 05:36:08;;;;;;;;;;;10.50;78.60;;;;;;5019656;28;20099;-69
2021/05/22 05:38:33;;;;;;;;;;;10.50;78.40;;;;;;5020536;28;19913;-68
2021/05/22 05:40:59;;;;;;;;;;;10.60;80.10;;;;;;5018217;28;20346;-68
2021/05/22 05:43:25;;;;;;;;;;;10.60;78.20;;;;;;5020054;28;19922;-69
2021/05/22 05:45:50;;;;;;;;;;;10.60;78.10;;;;;;5024222;28;19924;-68
2021/05/22 05:48:16;;;;;;;;;;;10.70;77.60;;;;;;5022678;28;20427;-68
2021/05/22 05:50:41;;;;;;;;;;;10.70;77.70;;;;;;5015580;28;19921;-69
2021/05/22 05:53:07;;;;;;;;;;;10.80;78.90;;;;;;5020910;28;20021;-69
2021/05/22 05:55:32;;;;;;;;;;;10.90;77.90;;;;;;5025373;28;19932;-68
2021/05/22 05:57:58;;;;;;;;;;;11.00;77.80;;;;;;5008375;28;20389;-69
2021/05/22 06:00:24;;;;;;;;;;;11.20;77.60;;;;;;5009054;28;19917;-69
2021/05/22 06:02:50;;;;;;;;;;;11.30;75.70;;;;;;5025869;28;19913;-69
2021/05/22 06:05:16;;;;;;;;;;;11.40;77.00;;;;;;5024016;28;20341;-69
2021/05/22 06:07:41;;;;;;;;;;;11.50;76.70;;;;;;5027120;28;19917;-69
2021/05/22 06:10:07;;;;;;;;;;;11.50;76.90;;;;;;5025904;28;20391;-69
2021/05/22 06:12:33;;;;;;;;;;;11.30;75.70;;;;;;5023377;28;19920;-69
2021/05/22 06:15:10;;;;;;;;;;;11.40;76.80;;;;;;5006069;28;19921;-69
2021/05/22 06:17:35;;;;;;;;;;;11.30;76.30;;;;;;5025238;28;20288;-69
2021/05/22 06:20:01;;;;;;;;;;;11.30;76.00;;;;;;5024945;28;19923;-69
2021/05/22 06:22:26;;;;;;;;;;;11.30;75.80;;;;;;5022439;28;19937;-69
2021/05/22 06:24:52;;;;;;;;;;;11.40;75.90;;;;;;5027136;28;19997;-69
2021/05/22 06:27:17;;;;;;;;;;;11.40;75.00;;;;;;5024897;28;20011;-68
2021/05/22 06:29:43;;;;;;;;;;;11.50;75.90;;;;;;5025643;28;20024;-69
2021/05/22 06:32:08;;;;;;;;;;;11.50;76.50;;;;;;5023825;28;20574;-68
2021/05/22 06:34:34;;;;;;;;;;;11.50;75.30;;;;;;5026074;28;19913;-68
2021/05/22 06:37:00;;;;;;;;;;;11.50;74.80;;;;;;5025721;28;19956;-70
2021/05/22 06:39:25;;;;;;;;;;;11.60;76.10;;;;;;5025955;28;19967;-70
2021/05/22 06:41:51;;;;;;;;;;;11.60;75.40;;;;;;5025239;28;19917;-69
2021/05/22 06:44:23;;;;;;;;;;;11.60;75.00;;;;;;5025720;28;20383;-69
2021/05/22 06:46:48;;;;;;;;;;;11.70;74.70;;;;;;5025305;28;19934;-68
2021/05/22 06:49:14;;;;;;;;;;;11.70;74.10;;;;;;5025040;28;20016;-69
2021/05/22 06:51:40;;;;;;;;;;;11.80;74.40;;;;;;5019068;28;19929;-69
2021/05/22 06:54:05;;;;;;;;;;;11.70;73.30;;;;;;5023335;28;19947;-70
2021/05/22 06:56:31;;;;;;;;;;;11.70;73.30;;;;;;5025116;28;19943;-69
2021/05/22 06:58:56;;;;;;;;;;;11.60;73.70;;;;;;5023649;28;19920;-69
2021/05/22 07:01:22;;;;;;;;;;;11.80;74.30;;;;;;5023579;28;19917;-69
2021/05/22 07:03:48;;;;;;;;;;;11.90;74.50;;;;;;5025299;28;19928;-70
2021/05/22 07:06:13;;;;;;;;;;;12.00;74.40;;;;;;5024908;28;19979;-70
2021/05/22 07:08:39;;;;;;;;;;;12.10;73.30;;;;;;5022293;28;19935;-68
2021/05/22 07:11:05;;;;;;;;;;;12.20;72.70;;;;;;5022459;28;19971;-68
2021/05/22 07:13:30;;;;;;;;;;;12.20;73.20;;;;;;5024169;28;20372;-69
2021/05/22 07:15:56;;;;;;;;;;;12.20;71.50;;;;;;5023632;28;19921;-68
2021/05/22 07:18:21;;;;;;;;;;;12.30;72.40;;;;;;5021444;28;19933;-68
2021/05/22 07:20:46;;;;;;;;;;;12.50;71.90;;;;;;5023026;28;19940;-67
2021/05/22 07:23:12;;;;;;;;;;;12.60;71.40;;;;;;5023252;28;19913;-68
2021/05/22 07:25:38;;;;;;;;;;;12.90;71.00;;;;;;5024180;28;19974;-68
2021/05/22 07:28:04;;;;;;;;;;;12.90;70.00;;;;;;5025050;28;19914;-69
2021/05/22 07:30:30;;;;;;;;;;;12.70;69.70;;;;;;5022056;28;19924;-68
2021/05/22 07:32:55;;;;;;;;;;;12.60;69.90;;;;;;5023583;28;19917;-68
2021/05/22 07:35:20;;;;;;;;;;;12.50;70.90;;;;;;5020706;28;19936;-67
2021/05/22 07:37:46;;;;;;;;;;;12.50;72.70;;;;;;5025088;28;20362;-68
2021/05/22 07:40:13;;;;;;;;;;;12.20;73.40;;;;;;5022519;28;20011;-68
2021/05/22 07:42:38;;;;;;;;;;;12.20;75.40;;;;;;5024070;28;19935;-68
2021/05/22 07:45:04;;;;;;;;;;;12.10;74.60;;;;;;5025226;28;20370;-68
2021/05/22 07:47:30;;;;;;;;;;;12.00;75.00;;;;;;5023950;28;19983;-68
2021/05/22 07:49:55;;;;;;;;;;;11.80;76.40;;;;;;5022511;28;19921;-67
2021/05/22 07:52:21;;;;;;;;;;;11.60;76.30;;;;;;5023124;28;19916;-68
2021/05/22 07:54:47;;;;;;;;;;;11.60;77.20;;;;;;5023085;28;20402;-67
2021/05/22 07:57:14;;;;;;;;;;;11.60;76.30;;;;;;5023226;28;19934;-67
2021/05/22 07:59:40;;;;;;;;;;;11.80;75.90;;;;;;5025126;28;19917;-69
2021/05/22 08:02:06;;;;;;;;;;;11.90;74.60;;;;;;5021789;28;19947;-67
2021/05/22 08:04:31;;;;;;;;;;;12.10;74.70;;;;;;5021287;28;19913;-67
2021/05/22 08:06:57;;;;;;;;;;;12.10;74.90;;;;;;5023045;28;20043;-68
2021/05/22 08:09:22;;;;;;;;;;;12.20;73.40;;;;;;5023772;28;20297;-67
2021/05/22 08:11:48;;;;;;;;;;;12.30;72.20;;;;;;5023542;28;19979;-68
2021/05/22 08:14:14;;;;;;;;;;;12.20;71.40;;;;;;5023327;28;19988;-67
2021/05/22 08:16:40;;;;;;;;;;;12.20;72.40;;;;;;5022661;28;20324;-68
2021/05/22 08:19:06;;;;;;;;;;;12.30;72.30;;;;;;5021600;28;19957;-69
2021/05/22 08:21:32;;;;;;;;;;;12.50;72.30;;;;;;5021969;28;20148;-68
2021/05/22 08:23:58;;;;;;;;;;;12.60;73.00;;;;;;5020614;28;20007;-68
2021/05/22 08:26:24;;;;;;;;;;;12.50;73.10;;;;;;5020337;28;19920;-68
2021/05/22 08:28:50;;;;;;;;;;;12.50;73.20;;;;;;5024122;28;20011;-69
2021/05/22 08:31:16;;;;;;;;;;;12.40;74.60;;;;;;5023485;28;19978;-68
2021/05/22 08:33:41;;;;;;;;;;;12.20;76.60;;;;;;5017332;28;19929;-67
2021/05/22 08:36:07;;;;;;;;;;;11.80;77.70;;;;;;5020473;28;20020;-68
2021/05/22 08:38:33;;;;;;;;;;;11.70;78.90;;;;;;5023450;28;20003;-68
2021/05/22 08:41:00;;;;;;;;;;;11.50;82.00;;;;;;5019688;28;20088;-67
2021/05/22 08:43:25;;;;;;;;;;;11.50;82.20;;;;;;5023257;28;19917;-68
2021/05/22 08:45:51;;;;;;;;;;;11.50;83.10;;;;;;5023326;28;20392;-69
2021/05/22 08:48:16;;;;;;;;;;;11.30;83.00;;;;;;5023616;28;19983;-68
2021/05/22 08:50:42;;;;;;;;;;;11.20;83.90;;;;;;5018501;28;19947;-69
2021/05/22 08:53:07;;;;;;;;;;;11.10;84.40;;;;;;5020477;28;19917;-68
2021/05/22 08:55:33;;;;;;;;;;;10.90;83.70;;;;;;5022801;28;20218;-67
2021/05/22 08:57:58;;;;;;;;;;;10.80;85.50;;;;;;5020790;28;19920;-66
2021/05/22 09:00:27;;;;;;;;;;;10.70;86.40;;;;;;5020308;28;19956;-67
2021/05/22 09:02:53;;;;;;;;;;;10.70;87.30;;;;;;5017118;28;19913;-67
2021/05/22 09:05:19;;;;;;;;;;;10.70;88.30;;;;;;5022861;28;19917;-68
2021/05/22 09:07:44;;;;;;;;;;;10.60;87.10;;;;;;5020522;28;19921;-69
2021/05/22 09:10:19;;;;;;;;;;;10.60;87.50;;;;;;5022187;28;19936;-68
2021/05/22 09:12:46;;;;;;;;;;;10.60;88.40;;;;;;5021693;28;20285;-68
2021/05/22 09:15:12;;;;;;;;;;;10.60;88.20;;;;;;5017750;28;19924;-66
2021/05/22 09:17:38;;;;;;;;;;;10.60;87.70;;;;;;5015733;28;20253;-68
2021/05/22 09:20:14;;;;;;;;;;;10.50;88.20;;;;;;5012791;28;20284;-68
2021/05/22 09:22:39;;;;;;;;;;;10.60;88.30;;;;;;5011063;28;19925;-67
2021/05/22 09:25:06;;;;;;;;;;;10.80;89.30;;;;;;5012577;28;20257;-68
2021/05/22 09:27:33;;;;;;;;;;;11.00;88.20;;;;;;5020895;28;19920;-67
2021/05/22 09:30:09;;;;;;;;;;;11.00;87.80;;;;;;5022701;28;19913;-68
2021/05/22 09:32:35;;;;;;;;;;;11.10;87.90;;;;;;5018183;28;20296;-68
2021/05/22 09:35:01;;;;;;;;;;;11.30;87.90;;;;;;5024769;28;19928;-68
2021/05/22 09:37:26;;;;;;;;;;;11.10;87.80;;;;;;5031682;28;20161;-68
2021/05/22 09:39:53;;;;;;;;;;;11.00;87.00;;;;;;5019998;28;19925;-69
2021/05/22 09:42:29;;;;;;;;;;;11.00;88.50;;;;;;5028016;28;19947;-67
2021/05/22 09:44:55;;;;;;;;;;;11.00;88.10;;;;;;5027055;28;20203;-68
2021/05/22 09:47:20;;;;;;;;;;;11.00;88.80;;;;;;5025871;28;19931;-67
2021/05/22 09:49:48;;;;;;;;;;;11.00;88.80;;;;;;5021956;28;19996;-69
2021/05/22 09:52:16;;;;;;;;;;;11.10;89.00;;;;;;5021306;28;19917;-68
2021/05/22 09:54:44;;;;;;;;;;;11.10;88.00;;;;;;5031048;28;20281;-68
2021/05/22 09:57:11;;;;;;;;;;;11.00;87.20;;;;;;5031846;28;19920;-68
2021/05/22 09:59:37;;;;;;;;;;;11.40;89.30;;;;;;5026435;28;19936;-69
2021/05/22 10:02:02;;;;;;;;;;;11.50;88.40;;;;;;5025729;28;20341;-67
2021/05/22 10:04:28;;;;;;;;;;;11.20;88.30;;;;;;5024288;28;20159;-68
2021/05/22 10:06:58;;;;;;;;;;;11.10;89.10;;;;;;5025202;28;19950;-68
2021/05/22 10:09:25;;;;;;;;;;;11.20;89.50;;;;;;5025523;28;20163;-70
2021/05/22 10:12:03;;;;;;;;;;;11.30;89.70;;;;;;5023205;28;19931;-70
2021/05/22 10:14:33;;;;;;;;;;;11.10;89.80;;;;;;5023150;28;19936;-69
2021/05/22 10:16:58;;;;;;;;;;;11.00;89.90;;;;;;5023400;28;19996;-68
2021/05/22 10:19:27;;;;;;;;;;;11.10;91.70;;;;;;5027061;28;19996;-69
2021/05/22 10:21:52;;;;;;;;;;;11.00;90.60;;;;;;5019364;28;19986;-68
2021/05/22 10:24:18;;;;;;;;;;;10.90;90.30;;;;;;5019839;28;20026;-68
2021/05/22 10:26:44;;;;;;;;;;;10.90;89.50;;;;;;5022566;28;20308;-69
2021/05/22 10:29:10;;;;;;;;;;;10.90;91.00;;;;;;5024847;28;19917;-68
2021/05/22 10:31:39;;;;;;;;;;;10.80;90.40;;;;;;5023357;28;19913;-68
2021/05/22 10:34:15;;;;;;;;;;;10.80;91.10;;;;;;5023657;28;19917;-69
2021/05/22 10:36:43;;;;;;;;;;;10.80;91.10;;;;;;5024714;28;19928;-69
2021/05/22 10:39:29;;;;;;;;;;;10.70;91.50;;;;;;5025008;28;20122;-68
2021/05/22 10:41:54;;;;;;;;;;;10.60;91.60;;;;;;5023470;28;19921;-69
2021/05/22 10:44:32;;;;;;;;;;;10.50;91.50;;;;;;5025151;28;20234;-68
2021/05/22 10:47:03;;;;;;;;;;;10.50;92.00;;;;;;5023252;28;20023;-69
2021/05/22 10:49:49;;;;;;;;;;;10.50;91.70;;;;;;5022543;28;20400;-69
2021/05/22 10:52:18;;;;;;;;;;;10.50;91.90;;;;;;5020942;28;20027;-69
2021/05/22 10:54:56;;;;;;;;;;;10.50;92.00;;;;;;5017594;28;20004;-69
2021/05/22 10:57:21;;;;;;;;;;;10.60;92.10;;;;;;5024363;28;19928;-69
2021/05/22 11:00:06;;;;;;;;;;;10.60;91.70;;;;;;5024142;28;19921;-69
2021/05/22 11:02:37;;;;;;;;;;;10.70;92.20;;;;;;5020189;28;20017;-70
2021/05/22 11:05:32;;;;;;;;;;;10.70;91.90;;;;;;5025470;28;20098;-69
2021/05/22 11:08:03;;;;;;;;;;;10.60;91.30;;;;;;5023025;28;19999;-69
2021/05/22 11:10:42;;;;;;;;;;;10.60;92.00;;;;;;5024678;28;19909;-68
2021/05/22 11:13:22;;;;;;;;;;;10.50;91.90;;;;;;5018101;28;19928;-69
2021/05/22 11:15:55;;;;;;;;;;;10.50;91.70;;;;;;5022778;28;19921;-69
2021/05/22 11:18:27;;;;;;;;;;;10.50;91.80;;;;;;5021672;28;20052;-70
2021/05/22 11:21:08;;;;;;;;;;;10.50;92.10;;;;;;5024244;28;19917;-67
2021/05/22 11:23:56;;;;;;;;;;;10.60;92.40;;;;;;5025446;28;19955;-69
2021/05/22 11:26:40;;;;;;;;;;;10.60;91.40;;;;;;5021314;28;19931;-69
2021/05/22 11:29:06;;;;;;;;;;;10.60;92.10;;;;;;5019726;28;20124;-69
2021/05/22 11:31:32;;;;;;;;;;;10.60;91.90;;;;;;5024303;28;19996;-69
2021/05/22 11:34:16;;;;;;;;;;;10.50;91.20;;;;;;5023622;28;19917;-69
2021/05/22 11:36:41;;;;;;;;;;;10.50;91.10;;;;;;5024051;28;19940;-69
2021/05/22 11:39:27;;;;;;;;;;;10.60;91.20;;;;;;5031124;28;20427;-69
2021/05/22 11:41:52;;;;;;;;;;;10.70;91.90;;;;;;5016665;28;20358;-67
2021/05/22 11:44:18;;;;;;;;;;;10.70;91.10;;;;;;5024166;28;19952;-69
2021/05/22 11:46:50;;;;;;;;;;;10.80;90.90;;;;;;5022849;28;19992;-68
2021/05/22 11:49:16;;;;;;;;;;;10.90;91.80;;;;;;5023253;28;19945;-69
2021/05/22 11:51:42;;;;;;;;;;;10.90;90.70;;;;;;5021178;28;20107;-69
2021/05/22 11:54:10;;;;;;;;;;;11.00;90.80;;;;;;5022799;28;20269;-69
2021/05/22 11:56:36;;;;;;;;;;;11.10;90.70;;;;;;5021743;28;20364;-68
2021/05/22 11:59:02;;;;;;;;;;;11.20;90.30;;;;;;5020558;28;19948;-70
2021/05/22 12:01:30;;;;;;;;;;;11.10;90.20;;;;;;5012789;28;19917;-69
2021/05/22 12:04:00;;;;;;;;;;;11.00;90.50;;;;;;5009873;28;19917;-68
2021/05/22 12:06:28;;;;;;;;;;;11.10;90.70;;;;;;5021325;28;20226;-68
2021/05/22 12:09:08;;;;;;;;;;;11.40;90.20;;;;;;5018435;28;19951;-66
2021/05/22 12:11:36;;;;;;;;;;;11.40;88.90;;;;;;5020328;28;19913;-68
2021/05/22 12:14:06;;;;;;;;;;;11.30;89.30;;;;;;5018053;28;20421;-69
2021/05/22 12:16:33;;;;;;;;;;;11.40;89.50;;;;;;5019646;28;19999;-69
2021/05/22 12:19:09;;;;;;;;;;;11.30;89.50;;;;;;5021325;28;20007;-69
2021/05/22 12:21:34;;;;;;;;;;;11.20;89.20;;;;;;5018078;28;20347;-69
2021/05/22 12:24:05;;;;;;;;;;;11.30;89.20;;;;;;5020105;28;19921;-70
2021/05/22 12:26:31;;;;;;;;;;;11.30;90.40;;;;;;5019888;28;19936;-70
2021/05/22 12:28:56;;;;;;;;;;;11.10;89.60;;;;;;5020493;28;19917;-69
2021/05/22 12:31:22;;;;;;;;;;;11.10;90.40;;;;;;5019637;28;20300;-68
2021/05/22 12:33:57;;;;;;;;;;;11.10;90.00;;;;;;5021246;28;19917;-68
2021/05/22 12:36:23;;;;;;;;;;;11.20;90.50;;;;;;5019489;28;19939;-69
2021/05/22 12:38:48;;;;;;;;;;;11.10;90.10;;;;;;5019126;28;19913;-70
2021/05/22 12:41:15;;;;;;;;;;;11.10;90.70;;;;;;5021170;28;20541;-69
2021/05/22 12:43:47;;;;;;;;;;;11.10;91.00;;;;;;5019897;28;20313;-69
2021/05/22 12:46:28;;;;;;;;;;;11.10;90.80;;;;;;5021369;28;19913;-71
2021/05/22 12:49:06;;;;;;;;;;;11.00;91.30;;;;;;5016875;28;20330;-69
2021/05/22 12:51:31;;;;;;;;;;;11.00;91.20;;;;;;5019001;28;20354;-70
2021/05/22 12:53:57;;;;;;;;;;;11.10;91.60;;;;;;5018718;28;19939;-69
2021/05/22 12:56:22;;;;;;;;;;;11.00;91.80;;;;;;5023192;28;19930;-69
2021/05/22 12:58:50;;;;;;;;;;;11.00;91.90;;;;;;5020445;28;20341;-70
2021/05/22 13:01:17;;;;;;;;;;;10.90;91.60;;;;;;5034399;28;19923;-68
2021/05/22 13:03:45;;;;;;;;;;;10.90;91.10;;;;;;5018912;28;19952;-69
2021/05/22 13:06:14;;;;;;;;;;;11.00;92.10;;;;;;5021254;28;20323;-68
2021/05/22 13:08:39;;;;;;;;;;;11.00;91.70;;;;;;5019718;28;19924;-69
2021/05/22 13:11:09;;;;;;;;;;;11.00;91.60;;;;;;5020865;28;19917;-68
2021/05/22 13:13:35;;;;;;;;;;;11.10;92.10;;;;;;5020502;28;20104;-70
2021/05/22 13:16:08;;;;;;;;;;;11.00;91.50;;;;;;5019929;28;20082;-70
2021/05/22 13:18:36;;;;;;;;;;;10.90;91.80;;;;;;5018929;28;20300;-69
2021/05/22 13:21:12;;;;;;;;;;;11.00;92.20;;;;;;5017169;28;21008;-69
2021/05/22 13:23:41;;;;;;;;;;;11.10;92.60;;;;;;5018326;28;20013;-71
2021/05/22 13:26:18;;;;;;;;;;;11.10;91.90;;;;;;5022317;28;19913;-69
2021/05/22 13:28:46;;;;;;;;;;;11.20;91.90;;;;;;5017227;28;19936;-69
2021/05/22 13:31:15;;;;;;;;;;;11.10;92.30;;;;;;5020474;28;19944;-69
2021/05/22 13:33:43;;;;;;;;;;;11.10;91.70;;;;;;5016863;28;20122;-70
2021/05/22 13:36:10;;;;;;;;;;;11.30;91.90;;;;;;5020720;28;20046;-70
2021/05/22 13:38:36;;;;;;;;;;;11.40;91.80;;;;;;5018300;28;20250;-69
2021/05/22 13:41:02;;;;;;;;;;;11.30;91.10;;;;;;5021594;28;20145;-69
2021/05/22 13:43:28;;;;;;;;;;;11.40;91.20;;;;;;5019756;28;19917;-69
2021/05/22 13:45:53;;;;;;;;;;;11.30;91.40;;;;;;5022154;28;19913;-69
2021/05/22 13:48:19;;;;;;;;;;;11.20;91.10;;;;;;5019799;28;19924;-70
2021/05/22 13:50:44;;;;;;;;;;;11.10;91.80;;;;;;5021506;28;20079;-69
2021/05/22 13:53:10;;;;;;;;;;;11.00;92.00;;;;;;5020116;28;19917;-70
2021/05/22 13:55:35;;;;;;;;;;;11.00;92.40;;;;;;5020909;28;20049;-69
2021/05/22 13:58:01;;;;;;;;;;;11.00;92.90;;;;;;5019546;28;19913;-69
2021/05/22 14:00:27;;;;;;;;;;;11.00;92.50;;;;;;5019426;28;19913;-69
2021/05/22 14:02:52;;;;;;;;;;;11.00;92.30;;;;;;5017722;28;20276;-70
2021/05/22 14:05:18;;;;;;;;;;;11.00;92.90;;;;;;5020819;28;19916;-69
2021/05/22 14:07:44;;;;;;;;;;;10.90;93.10;;;;;;5017293;28;20012;-68
2021/05/22 14:10:10;;;;;;;;;;;10.90;93.60;;;;;;5019934;28;19917;-69
2021/05/22 14:12:36;;;;;;;;;;;10.90;94.10;;;;;;5018459;28;19968;-69
2021/05/22 14:15:02;;;;;;;;;;;10.90;93.90;;;;;;5020833;28;20382;-69
2021/05/22 14:17:28;;;;;;;;;;;10.90;94.00;;;;;;5019397;28;20007;-69
2021/05/22 14:19:53;;;;;;;;;;;10.90;93.80;;;;;;5019946;28;19988;-70
2021/05/22 14:22:19;;;;;;;;;;;11.10;94.30;;;;;;5019203;28;20675;-68
2021/05/22 14:24:45;;;;;;;;;;;11.20;93.40;;;;;;5023283;28;19917;-69